Alliance, NE

10:51 PM MDT on October 20, 2014 (GMT -0600)
Alliance Municipal | Change Station
CLOSE
Current Station
Airport
Location: Alliance,
Elevation: 3930 ft
Nearby Weather Stations

Elev 3930 ft 42.06 °N, 102.80 °W | Updated 58 minutes ago

Clear
Clear
48 °F
Feels Like 48 °F
N
10
Wind Variable Wind from SSE

Today
High -- | Low -- °F
--% Chance of Precip.
Yesterday
High -- | Low -- °F
Precip. -- in
7:10 AM 6:01 PM
Waning Crescent, 7% visible
Pressure 29.96 in
Visibility 10.0 miles
Clouds Clear
Dew Point 39 °F
Humidity 71%
Rainfall 0.00 in
Snow Depth Not available.
UV 0 out of 12
Pollen 2.50 out of 12
Air Quality Not available.
Flu Activity Sporadic
METAR KAIA 210353Z AUTO 16009KT 10SM CLR 09/04 A3001 RMK AO2 SLP145 T00890039

More Conditions Fewer Conditions

Pressure 29.96 in
Visibility 10.0 miles
Clouds Clear
Dew Point 39 °F
Humidity 71%
Rainfall 0.00 in
Snow Depth Not available.
UV 0 out of 12
Pollen 2.50 out of 12
Air Quality Not available.
Flu Activity Sporadic
METAR KAIA 210353Z AUTO 16009KT 10SM CLR 09/04 A3001 RMK AO2 SLP145 T00890039

More Conditions Fewer Conditions

10-Day Weather Forecast

Almanac

Astronomy

Oct. 20, 2014 Rise Set
Actual Time 7:10 AM MDT 6:01 PM MDT
Civil Twilight 6:41 AM MDT 6:30 PM MDT
Nautical Twilight 6:09 AM MDT 7:02 PM MDT
Astronomical Twilight 5:36 AM MDT 7:35 PM MDT
Moon 3:57 AM MDT (10/20) 4:28 PM MDT (10/20)
Length of Visible Light 11h 48m
Length of Day
10h 51m
Tomorrow will be 2m 41s shorter.
Waning Crescent, 7% of the Moon is Illuminated
Oct 21
Waning Crescent
Oct 23
New
Oct 30
First Quarter
Nov 6
Full
Nov 14
Last Quarter

Yesterday's Extremes

State Highs State Lows

Community

WunderPhotos

Upload Photos

1,763,610 photos uploaded!

Nearby

Snow Depth

Station Depth Elevation
No new snow has been reported.

Earthquake Activity

City Distance Mag. Time & Date
No recent earthquake activity has been reported nearby.
Minimum magnitude displayed is 2.5.

Coastal Water Temperatures

Place Temperature
No Stations Reporting

Nearby Weather Stations